sensor_id;sensor_type;location;lat;lon;timestamp;pressure;altitude;pressure_sealevel;temperature;humidity
71666;BME280;59503;53.486;10.196;2023-09-18T00:01:46;101100.53;;;18.63;100.00
71666;BME280;59503;53.486;10.196;2023-09-18T00:04:11;101093.13;;;18.56;100.00
71666;BME280;59503;53.486;10.196;2023-09-18T00:06:37;101098.25;;;18.50;100.00
71666;BME280;59503;53.486;10.196;2023-09-18T00:09:02;101084.97;;;18.42;100.00
71666;BME280;59503;53.486;10.196;2023-09-18T00:11:28;101090.09;;;18.36;100.00
71666;BME280;59503;53.486;10.196;2023-09-18T00:13:53;101090.53;;;18.31;100.00
71666;BME280;59503;53.486;10.196;2023-09-18T00:16:19;101093.38;;;18.21;100.00
71666;BME280;59503;53.486;10.196;2023-09-18T00:18:44;101091.81;;;18.16;100.00
71666;BME280;59503;53.486;10.196;2023-09-18T00:21:13;101076.97;;;18.03;100.00
71666;BME280;59503;53.486;10.196;2023-09-18T00:23:38;101086.81;;;18.04;100.00
71666;BME280;59503;53.486;10.196;2023-09-18T00:26:04;101079.75;;;18.00;100.00
71666;BME280;59503;53.486;10.196;2023-09-18T00:28:29;101076.63;;;17.94;100.00
71666;BME280;59503;53.486;10.196;2023-09-18T00:30:55;101075.91;;;17.90;100.00
71666;BME280;59503;53.486;10.196;2023-09-18T00:33:20;101075.91;;;17.87;100.00
71666;BME280;59503;53.486;10.196;2023-09-18T00:35:50;101070.06;;;17.81;100.00
71666;BME280;59503;53.486;10.196;2023-09-18T00:38:16;101067.31;;;17.78;100.00
71666;BME280;59503;53.486;10.196;2023-09-18T00:40:42;101065.78;;;17.73;100.00
71666;BME280;59503;53.486;10.196;2023-09-18T00:43:10;101061.13;;;17.67;100.00
71666;BME280;59503;53.486;10.196;2023-09-18T00:45:49;101060.31;;;17.66;100.00
71666;BME280;59503;53.486;10.196;2023-09-18T00:48:16;101058.75;;;17.69;100.00
71666;BME280;59503;53.486;10.196;2023-09-18T00:50:43;101052.84;;;17.70;100.00
71666;BME280;59503;53.486;10.196;2023-09-18T00:53:10;101046.94;;;17.75;100.00
71666;BME280;59503;53.486;10.196;2023-09-18T00:55:37;101037.09;;;17.74;100.00
71666;BME280;59503;53.486;10.196;2023-09-18T00:58:04;101037.09;;;17.74;100.00
71666;BME280;59503;53.486;10.196;2023-09-18T01:00:30;101032.78;;;17.77;100.00
71666;BME280;59503;53.486;10.196;2023-09-18T01:02:55;101033.16;;;17.75;100.00
71666;BME280;59503;53.486;10.196;2023-09-18T01:05:21;101032.00;;;17.73;100.00
71666;BME280;59503;53.486;10.196;2023-09-18T01:07:47;101030.44;;;17.72;100.00
71666;BME280;59503;53.486;10.196;2023-09-18T01:10:13;101028.09;;;17.70;100.00
71666;BME280;59503;53.486;10.196;2023-09-18T01:15:56;101017.91;;;17.67;100.00
71666;BME280;59503;53.486;10.196;2023-09-18T01:18:23;101015.94;;;17.68;100.00
71666;BME280;59503;53.486;10.196;2023-09-18T01:20:49;101010.84;;;17.66;100.00
71666;BME280;59503;53.486;10.196;2023-09-18T01:23:14;101012.41;;;17.71;100.00
71666;BME280;59503;53.486;10.196;2023-09-18T01:25:40;101005.28;;;17.73;100.00
71666;BME280;59503;53.486;10.196;2023-09-18T01:28:05;100996.28;;;17.69;100.00
71666;BME280;59503;53.486;10.196;2023-09-18T01:30:30;100992.75;;;17.69;100.00
71666;BME280;59503;53.486;10.196;2023-09-18T01:32:57;100984.91;;;17.67;100.00
71666;BME280;59503;53.486;10.196;2023-09-18T01:35:26;100980.97;;;17.68;100.00
71666;BME280;59503;53.486;10.196;2023-09-18T01:37:56;100979.03;;;17.65;100.00
71666;BME280;59503;53.486;10.196;2023-09-18T01:40:24;100975.50;;;17.65;100.00
71666;BME280;59503;53.486;10.196;2023-09-18T01:42:49;100975.91;;;17.63;100.00
71666;BME280;59503;53.486;10.196;2023-09-18T01:45:15;100966.88;;;17.59;100.00
71666;BME280;59503;53.486;10.196;2023-09-18T01:47:41;100955.88;;;17.59;100.00
71666;BME280;59503;53.486;10.196;2023-09-18T01:50:06;100961.41;;;17.56;100.00
71666;BME280;59503;53.486;10.196;2023-09-18T01:52:32;100955.13;;;17.59;100.00
71666;BME280;59503;53.486;10.196;2023-09-18T01:55:00;100959.03;;;17.61;100.00
71666;BME280;59503;53.486;10.196;2023-09-18T01:57:25;100939.41;;;17.59;100.00
71666;BME280;59503;53.486;10.196;2023-09-18T01:59:51;100946.84;;;17.62;100.00
71666;BME280;59503;53.486;10.196;2023-09-18T02:02:16;100938.97;;;17.64;100.00
71666;BME280;59503;53.486;10.196;2023-09-18T02:04:41;100939.38;;;17.63;100.00
71666;BME280;59503;53.486;10.196;2023-09-18T02:07:07;100942.13;;;17.59;100.00
71666;BME280;59503;53.486;10.196;2023-09-18T02:09:32;100937.84;;;17.58;100.00
71666;BME280;59503;53.486;10.196;2023-09-18T02:11:58;100917.44;;;17.56;100.00
71666;BME280;59503;53.486;10.196;2023-09-18T02:14:24;100926.09;;;17.54;100.00
71666;BME280;59503;53.486;10.196;2023-09-18T02:16:49;100921.38;;;17.55;100.00
71666;BME280;59503;53.486;10.196;2023-09-18T02:19:16;100911.59;;;17.50;100.00
71666;BME280;59503;53.486;10.196;2023-09-18T02:21:44;100912.34;;;17.51;100.00
71666;BME280;59503;53.486;10.196;2023-09-18T02:24:09;100907.28;;;17.49;100.00
71666;BME280;59503;53.486;10.196;2023-09-18T02:26:35;100899.44;;;17.48;100.00
71666;BME280;59503;53.486;10.196;2023-09-18T02:29:05;100902.19;;;17.48;100.00
71666;BME280;59503;53.486;10.196;2023-09-18T02:31:30;100905.72;;;17.48;100.00
71666;BME280;59503;53.486;10.196;2023-09-18T02:33:56;100902.97;;;17.48;100.00
71666;BME280;59503;53.486;10.196;2023-09-18T02:36:21;100888.84;;;17.46;100.00
71666;BME280;59503;53.486;10.196;2023-09-18T02:38:47;100897.09;;;17.46;100.00
71666;BME280;59503;53.486;10.196;2023-09-18T02:41:12;100897.50;;;17.41;100.00
71666;BME280;59503;53.486;10.196;2023-09-18T02:43:38;100892.38;;;17.43;100.00
71666;BME280;59503;53.486;10.196;2023-09-18T02:46:04;100890.81;;;17.46;100.00
71666;BME280;59503;53.486;10.196;2023-09-18T02:48:31;100894.72;;;17.45;100.00
71666;BME280;59503;53.486;10.196;2023-09-18T02:51:00;100881.78;;;17.42;100.00
71666;BME280;59503;53.486;10.196;2023-09-18T02:53:26;100883.75;;;17.41;100.00
71666;BME280;59503;53.486;10.196;2023-09-18T02:55:54;100879.84;;;17.42;100.00
71666;BME280;59503;53.486;10.196;2023-09-18T02:58:20;100884.16;;;17.39;100.00
71666;BME280;59503;53.486;10.196;2023-09-18T03:00:47;100873.56;;;17.38;100.00
71666;BME280;59503;53.486;10.196;2023-09-18T03:03:13;100876.72;;;17.36;100.00
71666;BME280;59503;53.486;10.196;2023-09-18T03:05:40;100887.34;;;17.31;100.00
71666;BME280;59503;53.486;10.196;2023-09-18T03:08:06;100884.63;;;17.27;100.00
71666;BME280;59503;53.486;10.196;2023-09-18T03:10:37;100888.97;;;17.25;100.00
71666;BME280;59503;53.486;10.196;2023-09-18T03:13:03;100879.56;;;17.22;100.00
71666;BME280;59503;53.486;10.196;2023-09-18T03:15:29;100878.81;;;17.18;100.00
71666;BME280;59503;53.486;10.196;2023-09-18T03:17:55;100875.31;;;17.11;100.00
71666;BME280;59503;53.486;10.196;2023-09-18T03:20:24;100858.88;;;17.04;100.00
71666;BME280;59503;53.486;10.196;2023-09-18T03:22:56;100859.69;;;17.01;100.00
71666;BME280;59503;53.486;10.196;2023-09-18T03:25:22;100855.00;;;16.98;100.00
71666;BME280;59503;53.486;10.196;2023-09-18T03:27:50;100858.16;;;16.96;100.00
71666;BME280;59503;53.486;10.196;2023-09-18T03:30:16;100844.84;;;16.95;100.00
71666;BME280;59503;53.486;10.196;2023-09-18T03:32:42;100836.59;;;16.98;100.00
71666;BME280;59503;53.486;10.196;2023-09-18T03:35:08;100836.94;;;17.00;100.00
71666;BME280;59503;53.486;10.196;2023-09-18T03:37:52;100831.84;;;16.99;100.00
71666;BME280;59503;53.486;10.196;2023-09-18T03:40:21;100838.91;;;17.00;100.00
71666;BME280;59503;53.486;10.196;2023-09-18T03:42:47;100832.22;;;17.01;100.00
71666;BME280;59503;53.486;10.196;2023-09-18T03:45:14;100830.69;;;17.00;100.00
71666;BME280;59503;53.486;10.196;2023-09-18T03:47:41;100811.81;;;17.02;100.00
71666;BME280;59503;53.486;10.196;2023-09-18T03:50:10;100813.41;;;16.99;100.00
71666;BME280;59503;53.486;10.196;2023-09-18T03:52:36;100800.88;;;16.98;100.00
71666;BME280;59503;53.486;10.196;2023-09-18T03:55:02;100802.03;;;17.01;100.00
71666;BME280;59503;53.486;10.196;2023-09-18T03:57:27;100797.31;;;17.01;100.00
71666;BME280;59503;53.486;10.196;2023-09-18T03:59:53;100791.84;;;16.98;100.00
71666;BME280;59503;53.486;10.196;2023-09-18T04:02:19;100787.16;;;16.98;100.00
71666;BME280;59503;53.486;10.196;2023-09-18T04:04:44;100774.19;;;16.99;100.00
71666;BME280;59503;53.486;10.196;2023-09-18T04:07:09;100776.91;;;16.99;100.00
71666;BME280;59503;53.486;10.196;2023-09-18T04:09:37;100784.34;;;17.02;100.00
71666;BME280;59503;53.486;10.196;2023-09-18T04:12:03;100774.97;;;16.99;100.00
71666;BME280;59503;53.486;10.196;2023-09-18T04:14:31;100778.09;;;17.01;100.00
71666;BME280;59503;53.486;10.196;2023-09-18T04:16:56;100759.28;;;17.00;100.00
71666;BME280;59503;53.486;10.196;2023-09-18T04:19:22;100768.66;;;17.02;100.00
71666;BME280;59503;53.486;10.196;2023-09-18T04:21:47;100765.13;;;17.02;100.00
71666;BME280;59503;53.486;10.196;2023-09-18T04:24:13;100755.34;;;17.01;100.00
71666;BME280;59503;53.486;10.196;2023-09-18T04:26:38;100757.69;;;16.99;100.00
71666;BME280;59503;53.486;10.196;2023-09-18T04:29:05;100749.88;;;16.97;100.00
71666;BME280;59503;53.486;10.196;2023-09-18T04:31:31;100750.66;;;16.98;100.00
71666;BME280;59503;53.486;10.196;2023-09-18T04:33:56;100752.22;;;16.95;100.00
71666;BME280;59503;53.486;10.196;2023-09-18T04:36:22;100756.19;;;16.91;100.00
71666;BME280;59503;53.486;10.196;2023-09-18T04:38:48;100751.53;;;16.88;100.00
71666;BME280;59503;53.486;10.196;2023-09-18T04:41:14;100746.03;;;16.88;100.00
71666;BME280;59503;53.486;10.196;2023-09-18T04:43:40;100739.72;;;16.91;100.00
71666;BME280;59503;53.486;10.196;2023-09-18T04:46:06;100722.88;;;16.89;100.00
71666;BME280;59503;53.486;10.196;2023-09-18T04:48:32;100716.19;;;16.93;100.00
71666;BME280;59503;53.486;10.196;2023-09-18T04:50:58;100714.59;;;16.92;100.00
71666;BME280;59503;53.486;10.196;2023-09-18T04:53:24;100713.81;;;16.92;100.00
71666;BME280;59503;53.486;10.196;2023-09-18T04:55:50;100708.31;;;16.92;100.00
71666;BME280;59503;53.486;10.196;2023-09-18T04:58:16;100706.78;;;16.91;100.00
71666;BME280;59503;53.486;10.196;2023-09-18T05:00:42;100692.66;;;16.89;100.00
71666;BME280;59503;53.486;10.196;2023-09-18T05:03:08;100693.41;;;16.93;100.00
71666;BME280;59503;53.486;10.196;2023-09-18T05:05:35;100680.09;;;16.91;100.00
71666;BME280;59503;53.486;10.196;2023-09-18T05:08:06;100669.88;;;16.92;100.00
71666;BME280;59503;53.486;10.196;2023-09-18T05:10:35;100674.94;;;16.97;100.00
71666;BME280;59503;53.486;10.196;2023-09-18T05:13:00;100664.34;;;16.95;100.00
71666;BME280;59503;53.486;10.196;2023-09-18T05:15:26;100660.44;;;16.96;100.00
71666;BME280;59503;53.486;10.196;2023-09-18T05:17:52;100661.19;;;16.97;100.00
71666;BME280;59503;53.486;10.196;2023-09-18T05:20:26;100652.56;;;16.98;100.00
71666;BME280;59503;53.486;10.196;2023-09-18T05:22:52;100641.97;;;16.97;100.00
71666;BME280;59503;53.486;10.196;2023-09-18T05:25:25;100649.78;;;17.02;100.00
71666;BME280;59503;53.486;10.196;2023-09-18T05:27:52;100636.81;;;17.02;100.00
71666;BME280;59503;53.486;10.196;2023-09-18T05:30:24;100634.47;;;17.04;100.00
71666;BME280;59503;53.486;10.196;2023-09-18T05:32:50;100633.66;;;17.04;100.00
71666;BME280;59503;53.486;10.196;2023-09-18T05:35:16;100632.50;;;17.05;100.00
71666;BME280;59503;53.486;10.196;2023-09-18T05:37:42;100631.72;;;17.04;100.00
71666;BME280;59503;53.486;10.196;2023-09-18T05:40:09;100625.06;;;17.02;100.00
71666;BME280;59503;53.486;10.196;2023-09-18T05:42:35;100632.50;;;17.05;100.00
71666;BME280;59503;53.486;10.196;2023-09-18T05:45:02;100628.47;;;17.13;100.00
71666;BME280;59503;53.486;10.196;2023-09-18T05:47:30;100628.03;;;17.18;100.00
71666;BME280;59503;53.486;10.196;2023-09-18T05:49:56;100621.31;;;17.22;100.00
71666;BME280;59503;53.486;10.196;2023-09-18T05:52:22;100614.59;;;17.27;100.00
71666;BME280;59503;53.486;10.196;2023-09-18T05:54:49;100625.44;;;17.37;100.00
71666;BME280;59503;53.486;10.196;2023-09-18T05:57:15;100608.94;;;17.41;100.00
71666;BME280;59503;53.486;10.196;2023-09-18T05:59:41;100613.97;;;17.50;100.00
71666;BME280;59503;53.486;10.196;2023-09-18T06:02:09;100599.44;;;17.49;100.00
71666;BME280;59503;53.486;10.196;2023-09-18T06:04:34;100596.13;;;17.61;100.00
71666;BME280;59503;53.486;10.196;2023-09-18T06:07:03;100588.19;;;17.70;100.00
71666;BME280;59503;53.486;10.196;2023-09-18T06:09:28;100598.66;;;17.79;100.00
71666;BME280;59503;53.486;10.196;2023-09-18T06:11:54;100598.16;;;17.87;100.00
71666;BME280;59503;53.486;10.196;2023-09-18T06:14:20;100586.31;;;17.90;100.00
71666;BME280;59503;53.486;10.196;2023-09-18T06:16:45;100586.94;;;18.01;100.00
71666;BME280;59503;53.486;10.196;2023-09-18T06:19:11;100594.25;;;18.11;100.00
71666;BME280;59503;53.486;10.196;2023-09-18T06:21:36;100588.31;;;18.13;100.00
71666;BME280;59503;53.486;10.196;2023-09-18T06:24:01;100589.06;;;18.17;100.00
71666;BME280;59503;53.486;10.196;2023-09-18T06:26:27;100584.63;;;18.23;100.00
71666;BME280;59503;53.486;10.196;2023-09-18T06:28:53;100588.53;;;18.25;100.00
71666;BME280;59503;53.486;10.196;2023-09-18T06:31:20;100587.28;;;18.30;100.00
71666;BME280;59503;53.486;10.196;2023-09-18T06:33:46;100575.44;;;18.33;100.00
71666;BME280;59503;53.486;10.196;2023-09-18T06:36:13;100578.13;;;18.36;100.00
71666;BME280;59503;53.486;10.196;2023-09-18T06:38:38;100570.63;;;18.40;100.00
71666;BME280;59503;53.486;10.196;2023-09-18T06:41:04;100575.97;;;18.51;100.00
71666;BME280;59503;53.486;10.196;2023-09-18T06:43:29;100577.03;;;18.57;100.00
71666;BME280;59503;53.486;10.196;2023-09-18T06:45:55;100580.44;;;18.65;100.00
71666;BME280;59503;53.486;10.196;2023-09-18T06:48:23;100579.59;;;18.68;100.00
71666;BME280;59503;53.486;10.196;2023-09-18T06:50:49;100567.81;;;18.67;100.00
71666;BME280;59503;53.486;10.196;2023-09-18T06:53:15;100557.56;;;18.68;100.00
71666;BME280;59503;53.486;10.196;2023-09-18T06:55:40;100552.84;;;18.68;100.00
71666;BME280;59503;53.486;10.196;2023-09-18T06:58:06;100533.47;;;18.72;100.00
71666;BME280;59503;53.486;10.196;2023-09-18T07:00:32;100533.09;;;18.73;100.00
71666;BME280;59503;53.486;10.196;2023-09-18T07:02:57;100526.78;;;18.73;100.00
71666;BME280;59503;53.486;10.196;2023-09-18T07:05:23;100524.25;;;18.82;100.00
71666;BME280;59503;53.486;10.196;2023-09-18T07:07:48;100513.03;;;18.92;100.00
71666;BME280;59503;53.486;10.196;2023-09-18T07:10:13;100518.28;;;19.06;100.00
71666;BME280;59503;53.486;10.196;2023-09-18T07:12:39;100505.09;;;19.14;100.00
71666;BME280;59503;53.486;10.196;2023-09-18T07:15:05;100503.34;;;19.23;100.00
71666;BME280;59503;53.486;10.196;2023-09-18T07:17:32;100495.72;;;19.31;100.00
71666;BME280;59503;53.486;10.196;2023-09-18T07:19:57;100494.88;;;19.34;100.00
71666;BME280;59503;53.486;10.196;2023-09-18T07:22:23;100482.16;;;19.40;100.00
71666;BME280;59503;53.486;10.196;2023-09-18T07:24:48;100474.75;;;19.53;100.00
71666;BME280;59503;53.486;10.196;2023-09-18T07:27:14;100469.75;;;19.64;100.00
71666;BME280;59503;53.486;10.196;2023-09-18T07:29:40;100460.81;;;19.76;100.00
71666;BME280;59503;53.486;10.196;2023-09-18T07:32:05;100457.97;;;19.79;100.00
71666;BME280;59503;53.486;10.196;2023-09-18T07:34:31;100465.38;;;19.83;100.00
71666;BME280;59503;53.486;10.196;2023-09-18T07:36:56;100482.53;;;19.90;100.00
71666;BME280;59503;53.486;10.196;2023-09-18T07:39:22;100487.22;;;20.09;100.00
71666;BME280;59503;53.486;10.196;2023-09-18T07:41:47;100481.44;;;20.36;100.00
71666;BME280;59503;53.486;10.196;2023-09-18T07:44:19;100469.50;;;20.39;100.00
71666;BME280;59503;53.486;10.196;2023-09-18T07:46:44;100459.25;;;20.39;100.00
71666;BME280;59503;53.486;10.196;2023-09-18T07:49:10;100457.50;;;20.45;100.00
71666;BME280;59503;53.486;10.196;2023-09-18T07:51:35;100460.41;;;20.54;100.00
71666;BME280;59503;53.486;10.196;2023-09-18T07:54:01;100459.09;;;20.59;100.00
71666;BME280;59503;53.486;10.196;2023-09-18T07:56:26;100466.22;;;20.72;100.00
71666;BME280;59503;53.486;10.196;2023-09-18T07:58:52;100467.56;;;20.80;100.00
71666;BME280;59503;53.486;10.196;2023-09-18T08:01:18;100459.97;;;20.84;100.00
71666;BME280;59503;53.486;10.196;2023-09-18T08:03:46;100466.56;;;20.74;100.00
71666;BME280;59503;53.486;10.196;2023-09-18T08:06:12;100462.72;;;20.84;100.00
71666;BME280;59503;53.486;10.196;2023-09-18T08:08:37;100450.00;;;20.74;100.00
71666;BME280;59503;53.486;10.196;2023-09-18T08:11:08;100439.91;;;20.68;100.00
71666;BME280;59503;53.486;10.196;2023-09-18T08:13:34;100441.09;;;20.67;100.00
71666;BME280;59503;53.486;10.196;2023-09-18T08:15:59;100453.03;;;20.64;100.00
71666;BME280;59503;53.486;10.196;2023-09-18T08:18:25;100434.84;;;20.66;100.00
71666;BME280;59503;53.486;10.196;2023-09-18T08:20:52;100431.22;;;20.53;100.00
71666;BME280;59503;53.486;10.196;2023-09-18T08:23:18;100441.53;;;20.53;100.00
71666;BME280;59503;53.486;10.196;2023-09-18T08:25:44;100436.75;;;20.53;100.00
71666;BME280;59503;53.486;10.196;2023-09-18T08:28:09;100451.09;;;20.48;100.00
71666;BME280;59503;53.486;10.196;2023-09-18T08:30:35;100490.25;;;20.59;100.00
71666;BME280;59503;53.486;10.196;2023-09-18T08:33:02;100489.19;;;20.69;100.00
71666;BME280;59503;53.486;10.196;2023-09-18T08:35:28;100487.63;;;20.68;100.00
71666;BME280;59503;53.486;10.196;2023-09-18T08:37:55;100491.63;;;20.67;100.00
71666;BME280;59503;53.486;10.196;2023-09-18T08:40:22;100490.41;;;20.68;100.00
71666;BME280;59503;53.486;10.196;2023-09-18T08:42:51;100482.06;;;20.56;100.00
71666;BME280;59503;53.486;10.196;2023-09-18T08:45:55;100489.47;;;20.59;100.00
71666;BME280;59503;53.486;10.196;2023-09-18T08:48:27;100493.22;;;20.52;100.00
71666;BME280;59503;53.486;10.196;2023-09-18T08:51:01;100492.50;;;20.48;100.00
71666;BME280;59503;53.486;10.196;2023-09-18T08:53:30;100495.53;;;20.54;100.00
71666;BME280;59503;53.486;10.196;2023-09-18T08:55:58;100485.94;;;20.58;100.00
71666;BME280;59503;53.486;10.196;2023-09-18T08:58:25;100484.56;;;20.66;100.00
71666;BME280;59503;53.486;10.196;2023-09-18T09:00:51;100487.34;;;20.79;100.00
71666;BME280;59503;53.486;10.196;2023-09-18T09:03:18;100482.41;;;20.86;100.00
71666;BME280;59503;53.486;10.196;2023-09-18T09:05:43;100477.88;;;20.92;100.00
71666;BME280;59503;53.486;10.196;2023-09-18T09:08:09;100476.06;;;21.02;100.00
71666;BME280;59503;53.486;10.196;2023-09-18T09:10:34;100476.72;;;21.06;100.00
71666;BME280;59503;53.486;10.196;2023-09-18T09:13:00;100474.41;;;21.05;100.00
71666;BME280;59503;53.486;10.196;2023-09-18T09:15:47;100468.69;;;21.12;100.00
71666;BME280;59503;53.486;10.196;2023-09-18T09:18:15;100456.94;;;21.08;100.00
71666;BME280;59503;53.486;10.196;2023-09-18T09:20:41;100468.78;;;21.21;100.00
71666;BME280;59503;53.486;10.196;2023-09-18T09:23:09;100459.63;;;21.36;100.00
71666;BME280;59503;53.486;10.196;2023-09-18T09:25:35;100453.34;;;21.48;100.00
71666;BME280;59503;53.486;10.196;2023-09-18T09:28:03;100455.09;;;21.55;100.00
71666;BME280;59503;53.486;10.196;2023-09-18T09:30:30;100450.00;;;21.66;100.00
71666;BME280;59503;53.486;10.196;2023-09-18T09:32:57;100446.03;;;21.67;100.00
71666;BME280;59503;53.486;10.196;2023-09-18T09:35:24;100442.81;;;21.68;100.00
71666;BME280;59503;53.486;10.196;2023-09-18T09:37:56;100428.88;;;21.59;100.00
71666;BME280;59503;53.486;10.196;2023-09-18T09:40:25;100433.84;;;21.64;100.00
71666;BME280;59503;53.486;10.196;2023-09-18T09:42:52;100436.16;;;21.66;100.00
71666;BME280;59503;53.486;10.196;2023-09-18T09:45:19;100439.72;;;21.66;100.00
71666;BME280;59503;53.486;10.196;2023-09-18T09:47:45;100442.38;;;21.70;100.00
71666;BME280;59503;53.486;10.196;2023-09-18T09:50:11;100435.28;;;21.69;100.00
71666;BME280;59503;53.486;10.196;2023-09-18T09:52:46;100433.16;;;21.73;100.00
71666;BME280;59503;53.486;10.196;2023-09-18T09:55:31;100432.53;;;21.81;100.00
71666;BME280;59503;53.486;10.196;2023-09-18T09:58:05;100439.81;;;21.88;100.00
71666;BME280;59503;53.486;10.196;2023-09-18T10:00:36;100432.41;;;21.85;100.00
71666;BME280;59503;53.486;10.196;2023-09-18T10:03:13;100433.72;;;21.93;100.00
71666;BME280;59503;53.486;10.196;2023-09-18T10:05:42;100431.56;;;22.09;100.00
71666;BME280;59503;53.486;10.196;2023-09-18T10:08:15;100411.75;;;22.11;100.00
71666;BME280;59503;53.486;10.196;2023-09-18T10:13:18;100428.53;;;22.29;100.00
71666;BME280;59503;53.486;10.196;2023-09-18T10:15:48;100425.75;;;22.29;100.00
71666;BME280;59503;53.486;10.196;2023-09-18T10:21:26;100440.31;;;22.21;100.00
71666;BME280;59503;53.486;10.196;2023-09-18T10:24:05;100433.31;;;22.16;100.00
71666;BME280;59503;53.486;10.196;2023-09-18T10:26:39;100433.31;;;22.16;100.00
71666;BME280;59503;53.486;10.196;2023-09-18T10:29:07;100431.22;;;22.20;100.00
71666;BME280;59503;53.486;10.196;2023-09-18T10:31:34;100444.28;;;22.19;100.00
71666;BME280;59503;53.486;10.196;2023-09-18T10:34:02;100440.38;;;22.30;100.00
71666;BME280;59503;53.486;10.196;2023-09-18T10:36:30;100442.91;;;22.37;100.00
71666;BME280;59503;53.486;10.196;2023-09-18T10:38:58;100447.72;;;22.45;100.00
71666;BME280;59503;53.486;10.196;2023-09-18T10:41:26;100446.94;;;22.57;100.00
71666;BME280;59503;53.486;10.196;2023-09-18T10:43:53;100441.03;;;22.68;100.00
71666;BME280;59503;53.486;10.196;2023-09-18T10:46:19;100436.25;;;22.90;100.00
71666;BME280;59503;53.486;10.196;2023-09-18T10:48:46;100427.03;;;22.93;100.00
71666;BME280;59503;53.486;10.196;2023-09-18T10:51:12;100434.91;;;23.03;100.00
71666;BME280;59503;53.486;10.196;2023-09-18T10:53:40;100437.88;;;23.09;100.00
71666;BME280;59503;53.486;10.196;2023-09-18T10:56:05;100430.16;;;23.04;100.00
71666;BME280;59503;53.486;10.196;2023-09-18T10:58:32;100443.97;;;22.95;100.00
71666;BME280;59503;53.486;10.196;2023-09-18T11:01:02;100449.19;;;22.93;100.00
71666;BME280;59503;53.486;10.196;2023-09-18T11:03:32;100465.06;;;22.92;100.00
71666;BME280;59503;53.486;10.196;2023-09-18T11:06:05;100451.06;;;22.96;100.00
71666;BME280;59503;53.486;10.196;2023-09-18T11:08:43;100446.66;;;23.07;100.00
71666;BME280;59503;53.486;10.196;2023-09-18T11:11:10;100446.41;;;23.14;100.00
71666;BME280;59503;53.486;10.196;2023-09-18T11:16:18;100446.41;;;23.14;100.00
71666;BME280;59503;53.486;10.196;2023-09-18T11:18:50;100446.13;;;23.21;100.00
71666;BME280;59503;53.486;10.196;2023-09-18T11:21:18;100436.97;;;23.33;100.00
71666;BME280;59503;53.486;10.196;2023-09-18T11:23:44;100438.22;;;23.42;100.00
71666;BME280;59503;53.486;10.196;2023-09-18T11:26:10;100434.91;;;23.65;100.00
71666;BME280;59503;53.486;10.196;2023-09-18T11:28:37;100434.94;;;23.74;100.00
71666;BME280;59503;53.486;10.196;2023-09-18T11:31:03;100430.03;;;23.87;100.00
71666;BME280;59503;53.486;10.196;2023-09-18T11:33:40;100435.91;;;23.89;100.00
71666;BME280;59503;53.486;10.196;2023-09-18T11:36:13;100443.31;;;23.92;100.00
71666;BME280;59503;53.486;10.196;2023-09-18T11:38:55;100439.59;;;23.86;100.00
71666;BME280;59503;53.486;10.196;2023-09-18T11:41:25;100432.47;;;23.67;100.00
71666;BME280;59503;53.486;10.196;2023-09-18T11:43:52;100439.69;;;23.55;100.00
71666;BME280;59503;53.486;10.196;2023-09-18T11:46:19;100437.00;;;23.43;100.00
71666;BME280;59503;53.486;10.196;2023-09-18T11:48:49;100442.09;;;23.44;100.00
71666;BME280;59503;53.486;10.196;2023-09-18T11:51:24;100428.66;;;23.43;100.00
71666;BME280;59503;53.486;10.196;2023-09-18T11:53:53;100432.59;;;23.63;100.00
71666;BME280;59503;53.486;10.196;2023-09-18T11:56:20;100427.53;;;23.71;100.00
71666;BME280;59503;53.486;10.196;2023-09-18T11:58:55;100442.69;;;23.79;100.00
71666;BME280;59503;53.486;10.196;2023-09-18T12:01:21;100442.06;;;23.84;100.00
71666;BME280;59503;53.486;10.196;2023-09-18T12:03:54;100449.94;;;23.94;100.00
71666;BME280;59503;53.486;10.196;2023-09-18T12:06:20;100450.41;;;23.93;100.00
71666;BME280;59503;53.486;10.196;2023-09-18T12:08:48;100471.22;;;23.88;100.00
71666;BME280;59503;53.486;10.196;2023-09-18T12:11:13;100461.28;;;23.69;100.00
71666;BME280;59503;53.486;10.196;2023-09-18T12:13:43;100459.78;;;23.77;100.00
71666;BME280;59503;53.486;10.196;2023-09-18T12:16:08;100456.69;;;23.75;100.00
71666;BME280;59503;53.486;10.196;2023-09-18T12:18:35;100458.72;;;23.84;100.00
71666;BME280;59503;53.486;10.196;2023-09-18T12:21:06;100442.81;;;23.75;100.00
71666;BME280;59503;53.486;10.196;2023-09-18T12:23:42;100436.19;;;23.82;100.00
71666;BME280;59503;53.486;10.196;2023-09-18T12:26:11;100435.28;;;23.85;100.00
71666;BME280;59503;53.486;10.196;2023-09-18T12:28:39;100434.03;;;23.86;100.00
71666;BME280;59503;53.486;10.196;2023-09-18T12:31:06;100437.94;;;23.97;100.00
71666;BME280;59503;53.486;10.196;2023-09-18T12:33:38;100444.16;;;24.10;100.00
71666;BME280;59503;53.486;10.196;2023-09-18T12:36:05;100432.28;;;24.28;100.00
71666;BME280;59503;53.486;10.196;2023-09-18T12:38:31;100437.38;;;24.38;100.00
71666;BME280;59503;53.486;10.196;2023-09-18T12:40:59;100441.88;;;24.36;100.00
71666;BME280;59503;53.486;10.196;2023-09-18T12:43:40;100432.25;;;24.10;100.00